Time;durP1;ratioP1;P1;durP2;ratioP2;P2;SDS_P1;SDS_P2;PMS_P1;PMS_P2;Temp;Humidity;BMP_temperature;BMP_pressure;BME280_temperature;BME280_humidity;BME280_pressure;Samples;Min_cycle;Max_cycle;Signal;HPM_P1;HPM_P2
2021/05/12 00:00:23;;;;;;;13.22;5.12;;;;;;;13.12;67.75;98573.03;1718496;82;21184;-55
2021/05/12 00:02:50;;;;;;;14.65;5.40;;;;;;;13.16;69.46;98560.43;1656596;85;21109;-57
2021/05/12 00:05:21;;;;;;;12.65;5.72;;;;;;;13.22;70.40;98568.80;1718522;82;21152;-58
2021/05/12 00:07:48;;;;;;;14.38;5.85;;;;;;;13.25;70.94;98571.52;1718564;82;21085;-56
2021/05/12 00:10:16;;;;;;;15.18;5.75;;;;;;;13.27;72.16;98557.00;1718489;82;21149;-51
2021/05/12 00:12:43;;;;;;;18.42;5.75;;;;;;;13.31;72.38;98557.88;1718513;82;21070;-54
2021/05/12 00:15:13;;;;;;;12.70;5.42;;;;;;;13.30;72.65;98561.02;1718419;82;21058;-55
2021/05/12 00:17:42;;;;;;;12.85;5.65;;;;;;;13.31;73.41;98557.88;1718663;82;21573;-58
2021/05/12 00:20:12;;;;;;;14.95;5.45;;;;;;;13.28;74.22;98557.28;1718458;82;21041;-53
2021/05/12 00:25:15;;;;;;;13.95;5.35;;;;;;;13.27;76.26;98559.64;1718369;82;21137;-56
2021/05/12 00:27:42;;;;;;;16.23;5.80;;;;;;;13.27;77.51;98560.97;1718530;82;21145;-56
2021/05/12 00:30:20;;;;;;;11.30;5.55;;;;;;;13.26;77.98;98560.69;1718484;82;21164;-57
2021/05/12 00:32:48;;;;;;;10.82;5.70;;;;;;;13.27;78.63;98562.30;1718528;82;21077;-58
2021/05/12 00:35:15;;;;;;;8.73;5.00;;;;;;;13.25;79.45;98559.61;1718420;82;21180;-57
2021/05/12 00:37:43;;;;;;;13.95;6.37;;;;;;;13.25;79.63;98560.93;1718393;82;21199;-57
2021/05/12 00:40:12;;;;;;;10.75;5.83;;;;;;;13.23;80.11;98555.05;1718537;82;21152;-55
2021/05/12 00:42:40;;;;;;;8.28;5.25;;;;;;;13.21;80.58;98566.39;1724720;81;21070;-57
2021/05/12 00:45:10;;;;;;;16.50;5.65;;;;;;;13.19;81.20;98559.15;1728166;81;21057;-58
2021/05/12 00:47:37;;;;;;;9.90;5.75;;;;;;;13.18;81.67;98554.90;1728230;81;21147;-56
2021/05/12 00:50:06;;;;;;;14.18;6.35;;;;;;;13.17;81.89;98558.59;1728176;81;21347;-54
2021/05/12 00:52:33;;;;;;;12.43;6.58;;;;;;;13.16;82.04;98563.59;1727978;81;21069;-57
2021/05/12 00:55:01;;;;;;;11.25;6.08;;;;;;;13.13;82.58;98558.75;1667564;84;21164;-56
2021/05/12 00:57:28;;;;;;;14.47;5.60;;;;;;;13.11;82.96;98559.52;1727998;81;21084;-56
2021/05/12 00:59:55;;;;;;;18.25;5.83;;;;;;;13.10;83.00;98561.88;1728274;81;21089;-60
2021/05/12 01:02:26;;;;;;;13.08;6.08;;;;;;;13.07;82.98;98569.74;1728180;81;21052;-57
2021/05/12 01:04:53;;;;;;;9.83;5.33;;;;;;;13.04;83.32;98568.89;1667551;84;21232;-53
2021/05/12 01:07:20;;;;;;;14.05;6.28;;;;;;;13.01;83.64;98562.20;1667661;84;21105;-59
2021/05/12 01:09:48;;;;;;;10.80;5.45;;;;;;;12.99;84.13;98564.28;1667609;84;21069;-53
2021/05/12 01:12:15;;;;;;;10.50;5.45;;;;;;;12.98;84.32;98560.56;1667557;84;21181;-52
2021/05/12 01:14:42;;;;;;;16.20;6.40;;;;;;;12.96;84.59;98567.41;1728117;81;21053;-57
2021/05/12 01:17:11;;;;;;;18.35;6.40;;;;;;;12.96;84.77;98562.61;1727572;81;21056;-54
2021/05/12 01:19:39;;;;;;;11.50;5.97;;;;;;;12.92;84.46;98564.92;1727467;81;21065;-52
2021/05/12 01:22:06;;;;;;;12.18;6.60;;;;;;;12.88;84.86;98566.93;1727608;81;21636;-53
2021/05/12 01:24:34;;;;;;;13.95;6.03;;;;;;;12.83;84.97;98557.03;1727825;81;21070;-53
2021/05/12 01:27:01;;;;;;;14.75;6.03;;;;;;;12.77;85.05;98565.88;1728105;81;21084;-55
2021/05/12 01:29:28;;;;;;;12.55;6.60;;;;;;;12.71;85.27;98564.16;1728189;81;21056;-49
2021/05/12 01:31:55;;;;;;;14.90;6.20;;;;;;;12.65;85.46;98557.94;1728131;81;21045;-57
2021/05/12 01:34:23;;;;;;;10.75;6.10;;;;;;;12.60;85.54;98547.75;1727855;81;21088;-54
2021/05/12 01:36:51;;;;;;;15.32;6.10;;;;;;;12.56;85.26;98546.10;1727993;81;21100;-55
2021/05/12 01:39:18;;;;;;;12.50;6.15;;;;;;;12.55;85.28;98547.63;1728058;81;21097;-58
2021/05/12 01:41:46;;;;;;;13.05;6.22;;;;;;;12.51;85.18;98543.33;1722457;83;21140;-58
2021/05/12 01:44:13;;;;;;;13.53;6.58;;;;;;;12.46;85.26;98541.36;1707116;83;21102;-57
2021/05/12 01:46:43;;;;;;;17.67;6.70;;;;;;;12.42;85.39;98535.43;1707120;83;21072;-58
2021/05/12 01:49:11;;;;;;;12.75;6.30;;;;;;;12.38;85.46;98540.35;1707039;83;21561;-57
2021/05/12 01:51:38;;;;;;;16.30;6.80;;;;;;;12.35;85.86;98540.83;1707059;83;21081;-58
2021/05/12 01:54:08;;;;;;;15.85;6.55;;;;;;;12.31;86.15;98542.30;1707086;82;21088;-58
2021/05/12 01:56:36;;;;;;;18.57;6.72;;;;;;;12.28;86.75;98545.92;1707083;83;21109;-49
2021/05/12 01:59:05;;;;;;;11.65;6.80;;;;;;;12.22;87.39;98548.95;1707148;83;21133;-57
2021/05/12 02:01:32;;;;;;;14.60;7.28;;;;;;;12.17;88.21;98549.62;1707235;83;21716;-57
2021/05/12 02:04:07;;;;;;;15.78;6.92;;;;;;;12.12;88.78;98552.13;1707240;83;21093;-54
2021/05/12 02:06:34;;;;;;;13.15;6.50;;;;;;;12.06;89.17;98547.75;1707082;83;21576;-58
2021/05/12 02:09:02;;;;;;;15.53;6.97;;;;;;;12.01;89.69;98561.34;1707000;83;21084;-57
2021/05/12 02:11:29;;;;;;;12.43;6.50;;;;;;;11.94;89.88;98557.47;1707245;83;21057;-54
2021/05/12 02:13:57;;;;;;;14.98;7.17;;;;;;;11.88;89.77;98555.72;1707086;83;21073;-53
2021/05/12 02:16:24;;;;;;;16.77;7.00;;;;;;;11.81;90.20;98557.10;1707092;83;21089;-56
2021/05/12 02:18:52;;;;;;;14.30;6.87;;;;;;;11.76;90.32;98568.84;1707131;83;21061;-58
2021/05/12 02:21:19;;;;;;;12.60;6.60;;;;;;;11.71;90.44;98562.09;1707019;83;21108;-57
2021/05/12 02:23:46;;;;;;;15.05;6.60;;;;;;;11.65;90.88;98561.66;1707011;83;21069;-57
2021/05/12 02:26:14;;;;;;;12.80;6.40;;;;;;;11.61;91.23;98545.96;1707001;83;21069;-56
2021/05/12 02:28:41;;;;;;;15.70;7.03;;;;;;;11.58;91.83;98547.20;1707102;83;21080;-54
2021/05/12 02:31:08;;;;;;;16.75;6.53;;;;;;;11.58;92.17;98542.43;1707106;83;21070;-55
2021/05/12 02:33:36;;;;;;;16.50;6.95;;;;;;;11.58;92.17;98531.36;1707128;82;21069;-51
2021/05/12 02:36:05;;;;;;;15.15;6.92;;;;;;;11.58;92.45;98532.67;1707101;83;21076;-50
2021/05/12 02:38:32;;;;;;;13.68;6.97;;;;;;;11.61;92.53;98539.36;1707023;83;21085;-52
2021/05/12 02:41:00;;;;;;;18.00;6.53;;;;;;;11.61;92.69;98554.69;1707042;83;21073;-52
2021/05/12 02:43:27;;;;;;;17.17;6.72;;;;;;;11.63;92.50;98558.42;1723999;81;21038;-56
2021/05/12 02:45:54;;;;;;;14.35;6.47;;;;;;;11.62;92.68;98547.05;1728162;81;21072;-49
2021/05/12 02:48:22;;;;;;;14.43;6.85;;;;;;;11.62;92.99;98551.53;1728040;81;21084;-57
2021/05/12 02:50:49;;;;;;;15.88;6.90;;;;;;;11.62;93.05;98559.45;1728034;81;21073;-53
2021/05/12 02:53:16;;;;;;;15.60;7.12;;;;;;;11.67;93.18;98569.64;1727805;81;21084;-61
2021/05/12 02:55:44;;;;;;;11.12;6.17;;;;;;;11.78;92.77;98555.41;1703982;81;21049;-53
2021/05/12 02:58:11;;;;;;;19.90;7.03;;;;;;;11.82;92.20;98561.89;1728079;81;21033;-58
2021/05/12 03:00:39;;;;;;;14.68;6.90;;;;;;;11.84;92.17;98563.79;1728078;81;21041;-58
2021/05/12 03:03:07;;;;;;;12.68;6.65;;;;;;;11.92;91.90;98562.95;1728213;81;21077;-56
2021/05/12 03:05:35;;;;;;;12.23;6.30;;;;;;;12.09;91.30;98571.58;1728113;81;21081;-47
2021/05/12 03:08:03;;;;;;;14.63;6.87;;;;;;;12.26;90.22;98573.88;1728438;81;21584;-50
2021/05/12 03:10:33;;;;;;;12.90;6.70;;;;;;;12.30;89.54;98572.41;1728147;81;21084;-52
2021/05/12 03:13:02;;;;;;;14.98;6.42;;;;;;;12.33;89.53;98564.53;1728199;81;21072;-51
2021/05/12 03:15:30;;;;;;;15.28;6.55;;;;;;;12.50;88.98;98570.78;1728161;81;21064;-47
2021/05/12 03:17:59;;;;;;;11.38;6.53;;;;;;;12.71;87.71;98578.70;1728137;81;21116;-57
2021/05/12 03:20:27;;;;;;;15.50;7.12;;;;;;;12.94;86.23;98578.72;1727388;81;21578;-49
2021/05/12 03:22:54;;;;;;;15.05;6.95;;;;;;;13.25;84.45;98582.91;1728078;81;21151;-54
2021/05/12 03:25:22;;;;;;;12.80;6.65;;;;;;;13.56;82.43;98586.20;1728100;81;21052;-53
2021/05/12 03:27:49;;;;;;;13.50;6.60;;;;;;;13.83;80.60;98581.19;1728135;81;21080;-56
2021/05/12 03:30:24;;;;;;;14.28;6.58;;;;;;;14.12;78.92;98588.63;1728219;81;21069;-54
2021/05/12 03:32:51;;;;;;;14.33;6.83;;;;;;;14.45;77.13;98581.77;1728221;81;21570;-56
2021/05/12 03:35:18;;;;;;;15.08;7.25;;;;;;;14.76;75.07;98579.95;1728212;81;21092;-56
2021/05/12 03:37:46;;;;;;;15.53;6.75;;;;;;;15.02;73.67;98576.34;1728213;81;21547;-49
2021/05/12 03:40:14;;;;;;;11.30;6.50;;;;;;;15.25;71.99;98582.78;1728188;81;21059;-55
2021/05/12 03:42:41;;;;;;;12.45;6.47;;;;;;;15.47;70.52;98574.05;1718575;83;21073;-52
2021/05/12 03:45:09;;;;;;;13.93;6.80;;;;;;;15.68;69.31;98567.17;1707120;83;21069;-51
2021/05/12 03:47:36;;;;;;;13.08;6.85;;;;;;;15.81;68.28;98571.58;1707234;83;21081;-54
2021/05/12 03:50:05;;;;;;;11.97;6.70;;;;;;;15.89;67.43;98573.02;1707065;83;21116;-57
2021/05/12 03:52:33;;;;;;;16.48;7.22;;;;;;;15.88;66.81;98568.73;1707081;83;21608;-56
2021/05/12 03:55:00;;;;;;;14.15;7.12;;;;;;;15.49;67.25;98559.48;1707095;83;21105;-55
2021/05/12 03:57:27;;;;;;;17.60;6.90;;;;;;;14.88;68.83;98578.53;1707111;83;21053;-51
2021/05/12 03:59:55;;;;;;;14.55;7.10;;;;;;;14.34;71.19;98586.11;1707140;83;21089;-49
2021/05/12 04:02:22;;;;;;;14.80;7.17;;;;;;;13.87;73.25;98573.03;1707125;83;21037;-53
2021/05/12 04:04:50;;;;;;;13.98;7.12;;;;;;;13.54;75.04;98579.02;1707149;83;21089;-54
2021/05/12 04:07:17;;;;;;;12.88;6.55;;;;;;;13.40;76.18;98574.47;1707075;83;21034;-56
2021/05/12 04:09:44;;;;;;;12.53;7.17;;;;;;;13.37;76.71;98573.63;1707106;83;21092;-53
2021/05/12 04:12:12;;;;;;;14.25;6.90;;;;;;;13.61;76.48;98563.80;1707147;83;21068;-56
2021/05/12 04:14:39;;;;;;;12.80;6.78;;;;;;;14.23;74.60;98559.94;1707111;83;21073;-56
2021/05/12 04:17:07;;;;;;;11.85;6.30;;;;;;;15.07;71.44;98567.93;1707134;83;21140;-53
2021/05/12 04:19:34;;;;;;;12.95;6.60;;;;;;;15.91;67.88;98549.64;1707075;83;21109;-54
2021/05/12 04:22:02;;;;;;;11.20;6.37;;;;;;;16.61;64.39;98566.52;1707022;83;21124;-54
2021/05/12 04:24:31;;;;;;;12.20;5.92;;;;;;;17.13;62.08;98570.66;1707163;82;21097;-56
2021/05/12 04:26:58;;;;;;;13.98;6.22;;;;;;;17.47;58.16;98578.30;1707116;83;21045;-53
2021/05/12 04:29:26;;;;;;;12.53;5.58;;;;;;;17.45;58.11;98567.12;1707011;83;21081;-54
2021/05/12 04:31:53;;;;;;;13.10;6.12;;;;;;;17.45;57.86;98579.11;1707246;83;21034;-51
2021/05/12 04:34:21;;;;;;;14.90;5.87;;;;;;;17.36;58.30;98584.64;1707079;83;21422;-59
2021/05/12 04:36:48;;;;;;;14.60;5.80;;;;;;;17.42;57.92;98583.08;1707087;83;21612;-57
2021/05/12 04:39:15;;;;;;;11.40;5.90;;;;;;;17.12;58.29;98582.38;1707000;82;21058;-49
2021/05/12 04:41:46;;;;;;;12.43;6.28;;;;;;;16.60;59.46;98583.55;1707157;83;21077;-57
2021/05/12 04:44:14;;;;;;;11.08;5.97;;;;;;;16.05;61.17;98583.27;1726663;81;21068;-57
2021/05/12 04:46:44;;;;;;;12.63;6.45;;;;;;;15.55;63.10;98587.72;1728135;81;21624;-51
2021/05/12 04:49:12;;;;;;;14.80;6.80;;;;;;;15.27;64.45;98588.67;1727876;81;21556;-58
2021/05/12 04:51:39;;;;;;;12.93;6.67;;;;;;;15.17;65.26;98589.84;1731127;80;21139;-60
2021/05/12 04:54:07;;;;;;;9.88;6.00;;;;;;;15.10;65.96;98591.87;1728611;81;21149;-59
2021/05/12 04:56:35;;;;;;;15.45;6.50;;;;;;;14.97;65.96;98583.73;1720117;81;21068;-49
2021/05/12 04:59:08;;;;;;;12.55;5.87;;;;;;;14.99;66.10;98582.16;1724532;81;21083;-58
2021/05/12 05:01:41;;;;;;;9.78;6.10;;;;;;;15.33;65.10;98588.22;1722147;82;21069;-60
2021/05/12 05:04:09;;;;;;;11.03;5.72;;;;;;;15.50;63.92;98588.19;1722012;82;21571;-62
2021/05/12 05:06:36;;;;;;;8.03;5.20;;;;;;;15.55;63.38;98585.06;1721886;82;21072;-57
2021/05/12 05:09:06;;;;;;;11.05;4.90;;;;;;;15.51;61.77;98593.24;1746259;80;21096;-56
2021/05/12 05:11:33;;;;;;;12.18;4.58;;;;;;;15.32;61.99;98594.58;1734533;82;21678;-64
2021/05/12 05:14:02;;;;;;;10.38;4.97;;;;;;;15.10;61.73;98591.87;1747372;81;21086;-57
2021/05/12 05:16:29;;;;;;;7.60;4.00;;;;;;;14.85;59.69;98589.63;1741524;81;21026;-58
2021/05/12 05:18:57;;;;;;;10.68;3.90;;;;;;;14.57;59.25;98593.97;1745659;81;21136;-57
2021/05/12 05:21:26;;;;;;;14.53;3.85;;;;;;;14.51;58.43;98598.11;1729516;82;21150;-49
2021/05/12 05:23:56;;;;;;;10.23;3.72;;;;;;;14.52;57.53;98597.06;1721734;82;21568;-50
2021/05/12 05:26:25;;;;;;;8.20;3.10;;;;;;;14.56;56.42;98592.86;1721181;80;21099;-51
2021/05/12 05:28:53;;;;;;;6.60;2.98;;;;;;;14.56;54.48;98602.95;1722217;80;21093;-56
2021/05/12 05:31:21;;;;;;;8.50;3.30;;;;;;;14.48;54.77;98609.18;1720023;81;21020;-52
2021/05/12 05:34:07;;;;;;;10.00;3.30;;;;;;;14.38;54.78;98603.14;1701858;82;21048;-53
2021/05/12 05:36:54;;;;;;;10.23;3.70;;;;;;;14.24;55.42;98603.16;1722006;82;21068;-50
2021/05/12 05:39:40;;;;;;;15.05;3.50;;;;;;;14.20;56.46;98602.81;1724594;82;21616;-56
2021/05/12 05:42:26;;;;;;;9.78;3.60;;;;;;;14.32;57.52;98608.06;1734131;81;21066;-58
2021/05/12 05:45:12;;;;;;;13.20;3.95;;;;;;;14.49;57.00;98617.41;1738024;82;21097;-56
2021/05/12 05:47:59;;;;;;;12.35;3.42;;;;;;;14.43;56.45;98615.16;1737710;82;21189;-50
2021/05/12 05:50:45;;;;;;;8.18;3.42;;;;;;;14.34;56.18;98651.87;1737811;82;21109;-57
2021/05/12 05:53:31;;;;;;;7.17;3.27;;;;;;;14.34;55.31;98619.26;1749214;80;21061;-52
2021/05/12 05:56:16;;;;;;;7.45;3.17;;;;;;;14.41;54.52;98620.44;1731327;82;21437;-48
2021/05/12 05:59:03;;;;;;;7.60;3.02;;;;;;;14.51;54.51;98618.00;1761092;80;21089;-54
2021/05/12 06:01:49;;;;;;;8.90;3.62;;;;;;;14.67;53.48;98605.25;1728448;81;21108;-48
2021/05/12 06:04:17;;;;;;;3.87;2.85;;;;;;;14.85;52.35;98609.52;1752291;82;21088;-51
2021/05/12 06:07:05;;;;;;;6.40;3.30;;;;;;;15.07;51.85;98621.02;1749553;82;21084;-45
2021/05/12 06:09:51;;;;;;;8.35;3.83;;;;;;;15.33;51.57;98608.14;1722960;82;21073;-46
2021/05/12 06:12:37;;;;;;;5.67;3.55;;;;;;;15.87;50.81;98597.69;1749984;82;21116;-49
2021/05/12 06:15:23;;;;;;;9.90;3.25;;;;;;;16.26;49.92;98597.59;1751845;82;21135;-53
2021/05/12 06:18:09;;;;;;;10.45;3.75;;;;;;;16.50;48.96;98604.73;1756075;80;21144;-59
2021/05/12 06:20:55;;;;;;;5.80;3.12;;;;;;;16.50;48.96;98596.75;1757314;80;21116;-51
2021/05/12 06:23:40;;;;;;;8.48;3.10;;;;;;;16.68;48.16;98600.38;1756923;80;21109;-53
2021/05/12 06:26:27;;;;;;;4.97;2.87;;;;;;;17.04;47.25;98596.70;1756302;80;21096;-55
2021/05/12 06:29:13;;;;;;;10.40;3.10;;;;;;;17.32;46.20;98595.03;1733860;80;21081;-56
2021/05/12 06:31:59;;;;;;;6.90;3.00;;;;;;;17.50;45.65;98591.13;1725729;82;21115;-56
2021/05/12 06:34:44;;;;;;;8.75;2.70;;;;;;;17.70;45.08;98583.74;1726664;82;21318;-56
2021/05/12 06:37:30;;;;;;;6.45;3.10;;;;;;;17.89;45.20;98582.77;1735230;80;21049;-57
2021/05/12 06:40:16;;;;;;;6.20;2.90;;;;;;;18.28;44.67;98584.48;1726697;82;21088;-60
2021/05/12 06:42:43;;;;;;;6.12;3.05;;;;;;;18.60;43.40;98591.47;1725201;82;21618;-53
2021/05/12 06:45:13;;;;;;;10.10;2.85;;;;;;;18.60;42.28;98594.94;1727435;80;21046;-51
2021/05/12 06:47:41;;;;;;;9.83;2.60;;;;;;;18.44;42.92;98585.31;1732531;80;21119;-49
2021/05/12 06:50:10;;;;;;;4.87;2.45;;;;;;;18.47;42.16;98574.91;1730533;80;21073;-46
2021/05/12 06:52:37;;;;;;;6.55;2.33;;;;;;;18.66;41.83;98577.85;1720027;81;21664;-50
2021/05/12 06:55:06;;;;;;;4.45;2.30;;;;;;;19.08;40.50;98575.44;1718118;82;21200;-58
2021/05/12 06:57:33;;;;;;;7.00;2.30;;;;;;;19.16;39.80;98574.11;1724170;81;21096;-51
2021/05/12 07:00:01;;;;;;;2.95;2.33;;;;;;;19.22;39.88;98571.70;1726894;81;21053;-51
2021/05/12 07:02:28;;;;;;;3.58;2.30;;;;;;;19.29;39.62;98577.55;1718577;82;21121;-58
2021/05/12 07:04:55;;;;;;;4.15;2.00;;;;;;;19.27;39.19;98579.70;1720217;82;21097;-51
2021/05/12 07:07:23;;;;;;;7.67;2.60;;;;;;;19.14;39.01;98569.55;1719722;82;21058;-62
2021/05/12 07:09:50;;;;;;;8.65;2.20;;;;;;;18.95;38.31;98576.80;1720031;82;21066;-61
2021/05/12 07:12:18;;;;;;;4.60;1.77;;;;;;;18.72;38.75;98571.47;1720355;82;21061;-54
2021/05/12 07:14:45;;;;;;;2.55;2.05;;;;;;;18.58;38.59;98577.86;1720201;82;21190;-56
2021/05/12 07:17:15;;;;;;;4.90;2.00;;;;;;;18.45;38.93;98578.36;1720144;82;21104;-54
2021/05/12 07:19:43;;;;;;;5.28;2.27;;;;;;;18.45;39.23;98573.02;1720154;82;21089;-53
2021/05/12 07:22:12;;;;;;;3.42;1.70;;;;;;;18.53;39.17;98570.38;1720217;82;21097;-54
2021/05/12 07:24:41;;;;;;;5.80;2.15;;;;;;;18.52;39.54;98567.42;1719824;82;21355;-60
2021/05/12 07:27:08;;;;;;;3.30;2.20;;;;;;;18.40;39.00;98575.69;1719942;82;21049;-50
2021/05/12 07:29:36;;;;;;;5.37;2.15;;;;;;;18.11;38.79;98556.70;1719443;82;21049;-56
2021/05/12 07:32:06;;;;;;;5.28;1.85;;;;;;;17.74;39.52;98590.20;1741078;81;21029;-57
2021/05/12 07:34:34;;;;;;;7.85;2.15;;;;;;;17.44;40.15;98568.98;1720433;82;21524;-53
2021/05/12 07:37:02;;;;;;;8.20;2.25;;;;;;;17.24;40.08;98578.18;1720272;82;21080;-58
2021/05/12 07:39:32;;;;;;;3.30;2.12;;;;;;;16.98;40.52;98572.70;1721642;82;21072;-46
2021/05/12 07:42:03;;;;;;;5.95;2.12;;;;;;;16.73;41.33;98563.98;1720350;82;21089;-54
2021/05/12 07:44:29;;;;;;;5.95;2.12;;;;;;;16.57;42.73;98564.88;1721012;82;21061;-58
2021/05/12 07:46:57;;;;;;;8.90;2.60;;;;;;;16.62;42.27;98572.11;1719684;82;21075;-57
2021/05/12 07:49:25;;;;;;;5.60;2.40;;;;;;;16.60;42.43;98564.92;1720553;82;21089;-57
2021/05/12 07:51:53;;;;;;;3.10;2.17;;;;;;;16.67;41.89;98556.98;1718777;81;21180;-53
2021/05/12 07:54:20;;;;;;;5.70;2.22;;;;;;;16.68;42.17;98583.07;1741866;82;21066;-48
2021/05/12 07:56:48;;;;;;;5.40;2.30;;;;;;;16.62;41.78;98554.81;1733031;81;21204;-53
2021/05/12 07:59:18;;;;;;;2.47;2.00;;;;;;;16.49;42.52;98557.38;1744540;81;21159;-47
2021/05/12 08:01:47;;;;;;;5.25;2.10;;;;;;;16.45;43.14;98554.94;1750341;81;21104;-48
2021/05/12 08:04:16;;;;;;;6.50;2.20;;;;;;;16.43;43.04;98555.73;1752119;80;21374;-56
2021/05/12 08:06:43;;;;;;;4.55;2.60;;;;;;;16.38;41.92;98549.03;1725562;80;21069;-48
2021/05/12 08:09:14;;;;;;;5.10;2.12;;;;;;;16.22;42.26;98569.88;1736263;81;21108;-59
2021/05/12 08:11:43;;;;;;;4.85;2.30;;;;;;;16.10;43.09;98560.20;1743019;82;21633;-50
2021/05/12 08:14:10;;;;;;;4.00;2.25;;;;;;;16.10;42.56;98535.47;1745007;82;21092;-54
2021/05/12 08:16:38;;;;;;;5.20;2.20;;;;;;;16.09;42.20;98549.82;1665555;85;21213;-53
2021/05/12 08:19:06;;;;;;;7.08;2.12;;;;;;;16.06;42.65;98549.01;1725025;82;21173;-55
2021/05/12 08:21:35;;;;;;;1.95;1.80;;;;;;;16.05;42.64;98538.88;1728168;81;21648;-48
2021/05/12 08:24:06;;;;;;;1.55;1.40;;;;;;;16.02;43.09;98546.56;1740973;80;21092;-51
2021/05/12 08:26:35;;;;;;;7.40;1.47;;;;;;;16.04;41.35;98548.44;1735800;82;21061;-64
2021/05/12 08:29:06;;;;;;;3.40;1.50;;;;;;;16.01;40.25;98548.42;1734316;81;21014;-69
2021/05/12 08:31:33;;;;;;;4.35;1.50;;;;;;;15.94;41.07;98547.80;1745512;81;21132;-55
2021/05/12 08:34:02;;;;;;;2.72;1.32;;;;;;;15.95;40.69;98547.30;1741571;82;21132;-58
2021/05/12 08:36:30;;;;;;;2.58;1.35;;;;;;;15.98;41.44;98550.77;1739856;81;21085;-57
2021/05/12 08:38:58;;;;;;;3.02;1.07;;;;;;;16.04;40.61;98545.25;1749606;81;21168;-52
2021/05/12 08:41:25;;;;;;;3.80;1.92;;;;;;;16.05;40.58;98545.52;1669135;84;21689;-56
2021/05/12 08:43:52;;;;;;;3.87;1.42;;;;;;;16.06;40.27;98537.05;1674034;84;21074;-60
2021/05/12 08:46:21;;;;;;;6.25;3.00;;;;;;;16.12;41.34;98544.81;1660381;84;21107;-50
2021/05/12 08:48:49;;;;;;;8.78;3.80;;;;;;;16.16;40.88;98525.95;1719847;81;21049;-62
2021/05/12 08:51:17;;;;;;;3.55;2.55;;;;;;;16.17;40.07;98538.72;1719870;81;21046;-55
2021/05/12 08:53:44;;;;;;;4.83;2.45;;;;;;;16.22;39.85;98545.95;1727383;82;21144;-61
2021/05/12 08:56:11;;;;;;;5.47;2.12;;;;;;;16.20;40.57;98524.41;1714218;82;21184;-64
2021/05/12 08:58:39;;;;;;;4.00;1.60;;;;;;;16.23;40.85;98528.94;1719209;81;21088;-61
2021/05/12 09:01:06;;;;;;;5.03;1.60;;;;;;;16.24;40.25;98526.05;1722427;82;21120;-60
2021/05/12 09:03:33;;;;;;;5.97;1.62;;;;;;;16.25;41.08;98524.98;1725006;82;21069;-55
2021/05/12 09:06:00;;;;;;;2.70;1.30;;;;;;;16.31;41.13;98541.27;1725863;82;21088;-60
2021/05/12 09:08:28;;;;;;;5.33;1.70;;;;;;;16.37;41.55;98538.13;1738798;80;21009;-54
2021/05/12 09:10:55;;;;;;;4.60;1.80;;;;;;;16.42;41.18;98530.98;1756645;80;21062;-58
2021/05/12 09:13:43;;;;;;;4.53;1.40;;;;;;;16.44;41.08;98517.42;1756832;80;21052;-57
2021/05/12 09:16:25;;;;;;;2.00;1.40;;;;;;;16.49;41.41;98528.64;1756140;80;21109;-55
2021/05/12 09:19:08;;;;;;;4.90;1.62;;;;;;;16.51;40.28;98529.18;1694461;83;21108;-60
2021/05/12 09:22:00;;;;;;;10.55;1.80;;;;;;;16.46;40.54;98519.32;1756474;80;21086;-60
2021/05/12 09:24:42;;;;;;;4.40;1.40;;;;;;;16.43;40.94;98513.97;1720141;82;21002;-58
2021/05/12 09:27:19;;;;;;;3.58;1.67;;;;;;;16.34;40.64;98525.31;1751990;80;21612;-49
2021/05/12 09:29:45;;;;;;;1.57;1.47;;;;;;;16.33;40.99;98521.05;1756740;80;21176;-56
2021/05/12 09:32:15;;;;;;;5.35;2.02;;;;;;;16.32;40.90;98530.09;1789640;80;21021;-53
2021/05/12 09:34:56;;;;;;;5.67;1.77;;;;;;;16.30;41.07;98512.27;1694726;83;21116;-50
2021/05/12 09:37:37;;;;;;;2.65;1.12;;;;;;;16.30;41.74;98515.73;1757352;80;21014;-54
2021/05/12 09:40:13;;;;;;;7.90;1.87;;;;;;;16.37;41.23;98523.49;1756992;80;21614;-53
2021/05/12 09:42:42;;;;;;;5.70;1.72;;;;;;;16.47;41.05;98510.28;1694542;83;21587;-50
2021/05/12 09:45:21;;;;;;;2.15;1.75;;;;;;;16.44;40.89;98511.58;1728795;82;21132;-53
2021/05/12 09:47:58;;;;;;;6.42;1.72;;;;;;;16.40;41.06;98518.98;1700672;83;21048;-63
2021/05/12 09:50:32;;;;;;;4.37;1.35;;;;;;;16.42;41.26;98525.67;1739535;82;21055;-61
2021/05/12 09:53:02;;;;;;;1.70;1.60;;;;;;;16.42;40.79;98520.88;1745152;81;21046;-61
2021/05/12 09:55:39;;;;;;;8.63;2.08;;;;;;;16.29;41.08;98517.31;1711127;82;21651;-57
2021/05/12 09:58:10;;;;;;;7.83;1.92;;;;;;;16.33;41.98;98507.22;1700668;83;21079;-50
2021/05/12 10:00:42;;;;;;;7.05;1.57;;;;;;;16.38;41.12;98507.80;1700115;83;21048;-48
2021/05/12 10:03:11;;;;;;;3.15;1.47;;;;;;;16.37;40.59;98522.16;1688390;83;21131;-60
2021/05/12 10:06:01;;;;;;;5.67;1.40;;;;;;;16.37;40.36;98527.48;1688685;83;21033;-56
2021/05/12 10:08:35;;;;;;;5.15;1.40;;;;;;;16.42;41.11;98532.84;1688675;83;21162;-54
2021/05/12 10:11:09;;;;;;;4.67;1.40;;;;;;;16.52;40.83;98528.15;1688316;83;21159;-56
2021/05/12 10:13:37;;;;;;;3.22;1.40;;;;;;;16.55;39.80;98516.98;1688305;83;21064;-60
2021/05/12 10:16:09;;;;;;;5.78;1.30;;;;;;;16.50;40.67;98526.25;1699380;82;21137;-50
2021/05/12 10:18:35;;;;;;;3.20;1.32;;;;;;;16.53;40.93;98532.41;1706315;82;21055;-57
2021/05/12 10:21:05;;;;;;;14.85;2.22;;;;;;;16.50;40.79;98527.58;1720724;82;21071;-59
2021/05/12 10:23:32;;;;;;;2.52;1.02;;;;;;;16.35;39.97;98523.75;1720736;82;21063;-59
2021/05/12 10:26:02;;;;;;;6.92;1.70;;;;;;;16.25;41.29;98519.66;1720847;82;21078;-57
2021/05/12 10:28:29;;;;;;;5.25;1.22;;;;;;;16.33;40.74;98529.03;1722165;82;21086;-54
2021/05/12 10:30:56;;;;;;;6.12;1.40;;;;;;;16.29;41.19;98526.09;1700815;82;21106;-54
2021/05/12 10:33:46;;;;;;;2.45;0.90;;;;;;;16.37;40.66;98532.27;1721029;82;21135;-55
2021/05/12 10:36:14;;;;;;;9.63;1.20;;;;;;;16.39;41.48;98528.02;1720959;82;21039;-54
2021/05/12 10:38:45;;;;;;;6.50;1.45;;;;;;;16.42;41.13;98527.00;1721005;82;21082;-56
2021/05/12 10:41:42;;;;;;;7.72;1.60;;;;;;;16.50;40.36;98531.57;1720765;82;21534;-57
2021/05/12 10:44:21;;;;;;;6.28;1.17;;;;;;;16.63;40.77;98534.62;1720899;82;21073;-51
2021/05/12 10:47:08;;;;;;;2.72;1.42;;;;;;;16.65;40.25;98550.33;1721835;80;21076;-48
2021/05/12 10:49:35;;;;;;;2.05;1.35;;;;;;;16.32;40.86;98546.85;1726972;81;21085;-54
2021/05/12 10:52:06;;;;;;;12.60;3.52;;;;;;;16.09;41.82;98539.98;1734251;82;21176;-48
2021/05/12 10:54:39;;;;;;;3.92;1.57;;;;;;;16.12;41.29;98536.84;1722039;80;21058;-53
2021/05/12 10:57:07;;;;;;;9.23;1.60;;;;;;;16.13;41.25;98541.09;1721260;81;21573;-55
2021/05/12 10:59:35;;;;;;;7.03;1.50;;;;;;;16.14;41.08;98538.71;1727014;81;21123;-61
2021/05/12 11:02:03;;;;;;;5.47;1.30;;;;;;;16.11;41.01;98536.53;1672148;80;21045;-62
2021/05/12 11:04:30;;;;;;;7.25;1.42;;;;;;;16.12;41.35;98532.05;1721764;81;21040;-56
2021/05/12 11:06:58;;;;;;;5.30;1.72;;;;;;;16.12;40.79;98530.72;1720232;81;21087;-57
2021/05/12 11:09:43;;;;;;;2.65;1.45;;;;;;;16.12;41.07;98537.37;1721702;82;21382;-57
2021/05/12 11:12:12;;;;;;;5.20;1.82;;;;;;;16.15;41.51;98521.70;1733096;81;21567;-56
2021/05/12 11:14:39;;;;;;;7.35;2.60;;;;;;;16.22;40.88;98528.66;1721984;82;21088;-52
2021/05/12 11:17:18;;;;;;;3.47;2.10;;;;;;;16.26;41.09;98537.75;1721450;82;20996;-57
2021/05/12 11:19:50;;;;;;;6.25;1.42;;;;;;;16.31;40.60;98528.49;1721971;82;21091;-52
2021/05/12 11:33:25;;;;;;;2.35;1.87;;;;;;;16.34;40.70;98531.44;1724390;81;21054;-48
2021/05/12 11:36:03;;;;;;;4.45;1.65;;;;;;;16.45;40.13;98531.80;1734690;82;21056;-52
2021/05/12 11:38:25;;;;;;;5.20;3.40;;;;;;;16.52;40.79;98516.17;1744009;80;21111;-52
2021/05/12 11:41:17;;;;;;;9.08;2.72;;;;;;;16.61;40.19;98517.30;1696669;83;21061;-55
2021/05/12 11:44:01;;;;;;;7.43;2.00;;;;;;;16.56;40.86;98519.91;1685514;82;21095;-51
2021/05/12 11:46:35;;;;;;;5.50;2.42;;;;;;;16.62;40.57;98533.00;1696620;84;21028;-57
2021/05/12 11:49:11;;;;;;;8.08;2.35;;;;;;;16.74;40.19;98526.19;1698763;82;21213;-61
2021/05/12 11:51:49;;;;;;;5.37;1.35;;;;;;;16.77;39.11;98519.57;1721326;82;21075;-55
2021/05/12 11:54:19;;;;;;;2.52;2.08;;;;;;;16.60;39.69;98525.01;1731811;80;21116;-50
2021/05/12 11:56:56;;;;;;;7.53;1.72;;;;;;;16.48;39.83;98516.40;1720106;81;21022;-55
2021/05/12 11:59:31;;;;;;;7.00;1.50;;;;;;;16.39;40.26;98512.86;1715406;80;21017;-52